HOURLY OBS INDEX

088

Central - north

EILDON FIRE TOWER

Site: 088164
Alt: 637.0m
57km NNE of HEALESVILLE


  Time     Wind        Temp  DP   Baro     Rain since   Rain past  Vis(m), Cloud(base in m), Weather
  local        km/h                         9am  last   hr   10m    
Sun 04:00    E 28/ 35  16.3  4.0  ------    0.0   0.0   0.0   0.0   ----- 
Sun 04:30    E 24/ 33  15.9  4.0  ------    0.0   0.0   0.0   0.0   ----- 
Sun 05:00    E 19/ 26  15.7  3.5  ------    0.0   0.0   0.0   0.0   ----- 
Sun 05:30    E 20/ 24  15.8  3.3  ------    0.0   0.0   0.0   0.0   ----- 
Sun 06:00    E 19/ 24  15.2  4.3  ------    0.0   0.0   0.0   0.0   ----- 
Sun 06:30    E 17/ 19  14.8  4.2  ------    0.0   0.0   0.0   0.0   ----- 
Sun 07:00    E 15/ 17  14.6  4.3  ------    0.0   0.0   0.0   0.0   ----- 
Sun 07:30  ENE 13/ 17  15.4  5.3  ------    0.0   0.0   0.0   0.0   ----- 
Sun 08:00  ENE 11/ 15  15.9  4.3  ------    0.0   0.0   0.0   0.0   ----- 
Sun 08:30    E  7/  9  17.4  6.0  ------    0.0   0.0   0.0   0.0   ----- 
Sun 09:00  ENE  6/  9  18.0  6.5  ------    0.0   0.0   0.0   0.0   ----- 
Sun 09:00  ENE  6/  9  18.0  6.5  ------    0.0   0.0  ----   0.0   ----- 
Sun 09:30  ENE  6/  9  18.1  6.3  ------    0.0   0.0   0.0   0.0   ----- 

MANGALORE AIRPORT

Site: 088109
Alt: 140.8m
16km NNE of SEYMOUR


  Time     Wind        Temp  DP   Baro     Rain since   Rain past  Vis(m), Cloud(base in m), Weather
  local        km/h                         9am  last   hr   10m    
Sun 04:00   SW 13/ 15  15.8 10.3  1023.4    0.0   0.0   0.0   0.0   10000 
Sun 04:30   SW  7/ 11  15.1 10.1  1023.4    0.0   0.0   0.0   0.0   10000 
Sun 05:00   SW  7/ 11  14.9 10.1  1023.6    0.0   0.0   0.0   0.0   10000 
Sun 05:30   SW  4/  7  13.9  9.5  1024.0    0.0   0.0   0.0   0.0   10000 
Sun 06:00    C  0/  0  12.8  9.1  1024.5    0.0   0.0   0.0   0.0   10000 
Sun 06:30    C  0/  0  11.6  8.5  1024.9    0.0   0.0   0.0   0.0   10000 
Sun 07:00    C  0/  0  11.0  8.2  1025.4    0.0   0.0   0.0   0.0   10000 
Sun 07:30    C  0/  0  12.5  9.5  1026.0    0.0   0.0   0.0   0.0   10000 
Sun 08:00   SW  4/  6  14.1  9.9  1026.7    0.0   0.0   0.0   0.0   10000 
Sun 08:30    C  0/  0  16.7  9.9  1026.9    0.0   0.0   0.0   0.0   10000 
Sun 09:00  SSW  7/ 11  20.2  8.2  1027.0    0.0   0.0   0.0   0.0   10000 
Sun 09:00  SSW  7/ 11  20.2  8.2  1027.0    0.0   0.0  ----   0.0   10000 
Sun 09:30  NNE 20/ 28  21.7  8.6  1027.2    0.0   0.0   0.0   0.0   10000 

PUCKAPUNYAL LYON HILL (DEFENCE)

Site: 088167
Alt: 193.0m
km of


  Time     Wind        Temp  DP   Baro     Rain since   Rain past  Vis(m), Cloud(base in m), Weather
  local        km/h                         9am  last   hr   10m    
Sun 04:00    S 13/ 19  17.0 10.4  ------    0.0   0.0   0.0   0.0   ----- 
Sun 04:30    S 11/ 17  16.7 10.1  ------    0.0   0.0   0.0   0.0   ----- 
Sun 05:00    S 13/ 19  16.6 10.0  ------    0.0   0.0   0.0   0.0   ----- 
Sun 05:30  SSE 13/ 15  17.0  9.4  ------    0.0   0.0   0.0   0.0   ----- 
Sun 06:00  SSE 11/ 15  16.5  9.2  ------    0.0   0.0   0.0   0.0   ----- 
Sun 06:30  SSE  9/ 13  16.4  9.1  ------    0.0   0.0   0.0   0.0   ----- 
Sun 07:00    C  0/  6  15.5  9.0  ------    0.0   0.0   0.0   0.0   ----- 
Sun 07:30  WNW  2/  6  15.9  9.3  ------    0.0   0.0   0.0   0.0   ----- 
Sun 08:00  SSE  4/  6  17.6  9.8  ------    0.0   0.0   0.0   0.0   ----- 
Sun 08:30    E  4/  6  19.0  9.8  ------    0.0   0.0   0.0   0.0   ----- 
Sun 09:00    N 20/ 26  20.2  8.8  ------    0.0   0.0   0.0   0.0   ----- 
Sun 09:00    N 20/ 26  20.2  8.8  ------    0.0   0.0  ----   0.0   ----- 
Sun 09:30  NNE 17/ 24  21.4  9.3  ------    0.0   0.0   0.0   0.0   ----- 

PUCKAPUNYAL WEST (DEFENCE)

Site: 088166
Alt: 293.0m
km of


  Time     Wind        Temp  DP   Baro     Rain since   Rain past  Vis(m), Cloud(base in m), Weather
  local        km/h                         9am  last   hr   10m    
Sun 04:00    S 13/ 17  17.2  8.6  ------    0.0   0.0   0.0   0.0   ----- 
Sun 04:30    S 13/ 17  17.1  8.5  ------    0.0   0.0   0.0   0.0   ----- 
Sun 05:00    S 11/ 15  16.5  8.2  ------    0.0   0.0   0.0   0.0   ----- 
Sun 05:30    S  9/ 13  15.9  7.9  ------    0.0   0.0   0.0   0.0   ----- 
Sun 06:00  SSW  7/  9  16.2  7.4  ------    0.0   0.0   0.0   0.0   ----- 
Sun 06:30    S  6/  7  15.1  6.7  ------    0.0   0.0   0.0   0.0   ----- 
Sun 07:00  SSW  4/  6  14.7  6.8  ------    0.0   0.0   0.0   0.0   ----- 
Sun 07:30    C  0/  0  15.6  6.6  ------    0.0   0.0   0.0   0.0   ----- 
Sun 08:00  NNE  6/  7  18.7  7.5  ------    0.0   0.0   0.0   0.0   ----- 
Sun 08:30    N  9/ 15  19.3  8.0  ------    0.0   0.0   0.0   0.0   ----- 
Sun 09:00  NNE 11/ 17  20.0  8.7  ------    0.0   0.0   0.0   0.0   ----- 
Sun 09:00  NNE 11/ 17  20.0  8.7  ------    0.0   0.0  ----   0.0   ----- 
Sun 09:30    N 17/ 26  20.9  8.9  ------    0.0   0.0   0.0   0.0   ----- 

REDESDALE

Site: 088051
Alt: 290.0m
36km SE of BENDIGO


  Time     Wind        Temp  DP   Baro     Rain since   Rain past  Vis(m), Cloud(base in m), Weather
  local        km/h                         9am  last   hr   10m    
Sun 04:00  SSW  7/  9  13.7  8.1  ------    0.0   0.0   0.0   0.0   ----- 
Sun 04:30   SW  6/  7  13.4  7.6  ------    0.0   0.0   0.0   0.0   ----- 
Sun 05:00  SSW  6/  7  13.4  7.8  ------    0.0   0.0   0.0   0.0   ----- 
Sun 05:30  SSW  6/  7  12.8  7.7  ------    0.0   0.0   0.0   0.0   ----- 
Sun 06:00  SSW  4/  6  12.5  7.4  ------    0.0   0.0   0.0   0.0   ----- 
Sun 06:30  SSW  2/  4  12.3  7.2  ------    0.0   0.0   0.0   0.0   ----- 
Sun 07:00  SSW  2/  4  12.6  6.9  ------    0.0   0.0   0.0   0.0   ----- 
Sun 07:30    E  6/  7  13.0  7.2  ------    0.0   0.0   0.0   0.0   ----- 
Sun 07:55    E  7/  9  18.0  7.4  ------    0.0   0.0  ----   0.0   ----- 
Sun 08:00    E  7/  9  18.5  7.6  ------    0.0   0.0   0.0   0.0   ----- 
Sun 08:30   NE  9/ 15  19.4  8.1  ------    0.0   0.0   0.0   0.0   ----- 
Sun 09:00  NNE 11/ 19  20.7  8.7  ------    0.0   0.0   0.0   0.0   ----- 
Sun 09:00  NNE 11/ 19  20.7  8.7  ------    0.0   0.0  ----   0.0   ----- 
Sun 09:30  NNE 13/ 26  21.9  8.8  ------    0.0   0.0   0.0   0.0   ----- 

WALLAN (KILMORE GAP)

Site: 088162
Alt: 527.8m
43km SSW of SEYMOUR


  Time     Wind        Temp  DP   Baro     Rain since   Rain past  Vis(m), Cloud(base in m), Weather
  local        km/h                         9am  last   hr   10m    
Sun 04:00    S  9/ 13  13.6 11.1  1025.3    0.0   0.0   0.0   0.0   10000 
Sun 04:30    S  7/  9  14.2 10.4  1025.2    0.0   0.0   0.0   0.0   10000 
Sun 05:00    E  7/ 13  15.4  8.2  1025.2    0.0   0.0   0.0   0.0   10000 
Sun 05:30  ENE 13/ 15  15.3  7.3  1025.3    0.0   0.0   0.0   0.0   10000 
Sun 06:00   NE 15/ 17  14.8  7.4  1025.4    0.0   0.0   0.0   0.0   10000 
Sun 06:30  NNE 19/ 20  15.3  6.3  1025.8    0.0   0.0   0.0   0.0   10000 
Sun 07:00  NNE 20/ 24  15.0  6.3  1026.1    0.0   0.0   0.0   0.0   10000 
Sun 07:30    N 24/ 32  15.3  6.1  1026.3    0.0   0.0   0.0   0.0   10000 
Sun 08:00    N 32/ 37  15.8  6.0  1026.4    0.0   0.0   0.0   0.0   10000 
Sun 08:30    N 35/ 43  17.5  6.7  1026.7    0.0   0.0   0.0   0.0   10000 
Sun 09:00    N 39/ 48  18.1  7.2  1027.0    0.0   0.0   0.0   0.0   10000 
Sun 09:00    N 39/ 48  18.1  7.2  1027.0    0.0   0.0  ----   0.0   10000 
Sun 09:30    N 39/ 50  18.5  7.9  1027.2    0.0   0.0   0.0   0.0   10000